sensor_id;sensor_type;location;lat;lon;timestamp;P1;durP1;ratioP1;P2;durP2;ratioP2
64403;SDS011;50726;54.912;-8.392;2022-08-30T00:02:07;430.25;;;404.92;;
64403;SDS011;50726;54.912;-8.392;2022-08-30T00:07:03;493.23;;;464.90;;
64403;SDS011;50726;54.912;-8.392;2022-08-30T00:09:30;439.60;;;414.02;;
64403;SDS011;50726;54.912;-8.392;2022-08-30T00:11:57;494.92;;;467.10;;
64403;SDS011;50726;54.912;-8.392;2022-08-30T00:14:25;509.02;;;480.30;;
64403;SDS011;50726;54.912;-8.392;2022-08-30T00:17:03;600.95;;;567.75;;
64403;SDS011;50726;54.912;-8.392;2022-08-30T00:19:47;560.55;;;529.85;;
64403;SDS011;50726;54.912;-8.392;2022-08-30T00:22:13;598.67;;;565.53;;
64403;SDS011;50726;54.912;-8.392;2022-08-30T00:24:47;653.33;;;617.78;;
64403;SDS011;50726;54.912;-8.392;2022-08-30T00:27:14;656.15;;;620.58;;
64403;SDS011;50726;54.912;-8.392;2022-08-30T00:32:15;664.58;;;628.47;;
64403;SDS011;50726;54.912;-8.392;2022-08-30T00:34:42;630.97;;;596.63;;
64403;SDS011;50726;54.912;-8.392;2022-08-30T00:37:09;638.08;;;603.17;;
64403;SDS011;50726;54.912;-8.392;2022-08-30T00:39:41;641.03;;;606.40;;
64403;SDS011;50726;54.912;-8.392;2022-08-30T00:42:12;630.53;;;595.72;;
64403;SDS011;50726;54.912;-8.392;2022-08-30T00:44:40;612.15;;;578.90;;
64403;SDS011;50726;54.912;-8.392;2022-08-30T00:47:12;628.33;;;594.83;;
64403;SDS011;50726;54.912;-8.392;2022-08-30T00:49:40;622.70;;;589.35;;
64403;SDS011;50726;54.912;-8.392;2022-08-30T00:52:15;630.15;;;596.28;;
64403;SDS011;50726;54.912;-8.392;2022-08-30T00:54:43;696.47;;;659.30;;
64403;SDS011;50726;54.912;-8.392;2022-08-30T00:57:15;615.92;;;582.58;;
64403;SDS011;50726;54.912;-8.392;2022-08-30T00:59:48;629.08;;;595.40;;
64403;SDS011;50726;54.912;-8.392;2022-08-30T01:02:14;612.60;;;579.40;;
64403;SDS011;50726;54.912;-8.392;2022-08-30T01:04:48;619.05;;;585.63;;
64403;SDS011;50726;54.912;-8.392;2022-08-30T01:07:19;622.50;;;588.67;;
64403;SDS011;50726;54.912;-8.392;2022-08-30T01:12:22;594.90;;;562.67;;
64403;SDS011;50726;54.912;-8.392;2022-08-30T01:17:16;633.67;;;599.57;;
64403;SDS011;50726;54.912;-8.392;2022-08-30T01:22:29;724.95;;;686.42;;
64403;SDS011;50726;54.912;-8.392;2022-08-30T01:27:29;732.80;;;693.08;;
64403;SDS011;50726;54.912;-8.392;2022-08-30T01:32:37;754.17;;;713.80;;
64403;SDS011;50726;54.912;-8.392;2022-08-30T01:35:05;762.22;;;721.25;;
64403;SDS011;50726;54.912;-8.392;2022-08-30T01:42:31;712.47;;;674.40;;
64403;SDS011;50726;54.912;-8.392;2022-08-30T01:47:34;739.28;;;699.20;;
64403;SDS011;50726;54.912;-8.392;2022-08-30T01:55:09;781.63;;;739.27;;
64403;SDS011;50726;54.912;-8.392;2022-08-30T01:57:36;808.13;;;764.17;;
64403;SDS011;50726;54.912;-8.392;2022-08-30T02:02:38;755.15;;;714.67;;
64403;SDS011;50726;54.912;-8.392;2022-08-30T02:07:58;816.58;;;771.22;;
64403;SDS011;50726;54.912;-8.392;2022-08-30T02:10:29;816.70;;;771.58;;
64403;SDS011;50726;54.912;-8.392;2022-08-30T02:12:56;804.75;;;760.35;;
64403;SDS011;50726;54.912;-8.392;2022-08-30T02:15:24;800.60;;;755.97;;
64403;SDS011;50726;54.912;-8.392;2022-08-30T02:17:53;809.55;;;764.17;;
64403;SDS011;50726;54.912;-8.392;2022-08-30T02:20:20;796.55;;;751.95;;
64403;SDS011;50726;54.912;-8.392;2022-08-30T02:22:46;815.10;;;768.65;;
64403;SDS011;50726;54.912;-8.392;2022-08-30T02:25:12;846.70;;;798.20;;
64403;SDS011;50726;54.912;-8.392;2022-08-30T02:27:39;857.40;;;808.42;;
64403;SDS011;50726;54.912;-8.392;2022-08-30T02:30:12;871.28;;;821.90;;
64403;SDS011;50726;54.912;-8.392;2022-08-30T02:32:38;846.63;;;798.63;;
64403;SDS011;50726;54.912;-8.392;2022-08-30T02:35:05;807.53;;;761.55;;
64403;SDS011;50726;54.912;-8.392;2022-08-30T02:37:31;882.53;;;831.70;;
64403;SDS011;50726;54.912;-8.392;2022-08-30T02:39:57;900.75;;;848.20;;
64403;SDS011;50726;54.912;-8.392;2022-08-30T02:42:22;907.75;;;854.30;;
64403;SDS011;50726;54.912;-8.392;2022-08-30T02:44:48;901.05;;;847.60;;
64403;SDS011;50726;54.912;-8.392;2022-08-30T02:47:21;901.92;;;848.20;;
64403;SDS011;50726;54.912;-8.392;2022-08-30T02:54:46;865.03;;;814.72;;
64403;SDS011;50726;54.912;-8.392;2022-08-30T02:57:18;843.20;;;794.33;;
64403;SDS011;50726;54.912;-8.392;2022-08-30T02:59:55;853.17;;;803.78;;
64403;SDS011;50726;54.912;-8.392;2022-08-30T03:02:21;870.40;;;820.08;;
64403;SDS011;50726;54.912;-8.392;2022-08-30T03:04:49;859.53;;;809.72;;
64403;SDS011;50726;54.912;-8.392;2022-08-30T03:07:17;879.30;;;828.03;;
64403;SDS011;50726;54.912;-8.392;2022-08-30T03:09:47;893.65;;;841.40;;
64403;SDS011;50726;54.912;-8.392;2022-08-30T03:14:42;863.92;;;813.42;;
64403;SDS011;50726;54.912;-8.392;2022-08-30T03:17:09;870.88;;;820.20;;
64403;SDS011;50726;54.912;-8.392;2022-08-30T03:19:35;899.80;;;847.13;;
64403;SDS011;50726;54.912;-8.392;2022-08-30T03:22:06;859.50;;;809.35;;
64403;SDS011;50726;54.912;-8.392;2022-08-30T03:29:48;899.85;;;847.20;;
64403;SDS011;50726;54.912;-8.392;2022-08-30T03:32:18;892.60;;;840.13;;
64403;SDS011;50726;54.912;-8.392;2022-08-30T03:34:46;876.60;;;825.63;;
64403;SDS011;50726;54.912;-8.392;2022-08-30T03:39:46;894.17;;;842.27;;
64403;SDS011;50726;54.912;-8.392;2022-08-30T03:44:43;881.10;;;830.73;;
64403;SDS011;50726;54.912;-8.392;2022-08-30T03:47:11;873.67;;;823.70;;
64403;SDS011;50726;54.912;-8.392;2022-08-30T03:52:17;862.83;;;813.75;;
64403;SDS011;50726;54.912;-8.392;2022-08-30T03:57:43;772.90;;;730.65;;
64403;SDS011;50726;54.912;-8.392;2022-08-30T04:00:09;767.53;;;725.53;;
64403;SDS011;50726;54.912;-8.392;2022-08-30T04:02:44;681.17;;;644.28;;
64403;SDS011;50726;54.912;-8.392;2022-08-30T04:05:10;749.30;;;708.58;;
64403;SDS011;50726;54.912;-8.392;2022-08-30T04:07:36;744.38;;;704.30;;
64403;SDS011;50726;54.912;-8.392;2022-08-30T04:10:12;735.25;;;695.30;;
64403;SDS011;50726;54.912;-8.392;2022-08-30T04:12:40;675.20;;;639.15;;
64403;SDS011;50726;54.912;-8.392;2022-08-30T04:15:07;590.40;;;558.13;;
64403;SDS011;50726;54.912;-8.392;2022-08-30T04:22:38;795.00;;;750.63;;
64403;SDS011;50726;54.912;-8.392;2022-08-30T04:25:22;818.55;;;772.25;;
64403;SDS011;50726;54.912;-8.392;2022-08-30T04:27:48;848.80;;;800.92;;
64403;SDS011;50726;54.912;-8.392;2022-08-30T04:32:50;891.80;;;841.40;;
64403;SDS011;50726;54.912;-8.392;2022-08-30T04:40:43;831.40;;;785.70;;
64403;SDS011;50726;54.912;-8.392;2022-08-30T04:43:12;812.42;;;767.92;;
64403;SDS011;50726;54.912;-8.392;2022-08-30T04:48:29;635.10;;;600.30;;
64403;SDS011;50726;54.912;-8.392;2022-08-30T04:53:23;689.50;;;651.97;;
64403;SDS011;50726;54.912;-8.392;2022-08-30T04:55:54;675.40;;;638.65;;
64403;SDS011;50726;54.912;-8.392;2022-08-30T04:58:19;784.15;;;741.10;;
64403;SDS011;50726;54.912;-8.392;2022-08-30T05:00:53;821.42;;;775.47;;
64403;SDS011;50726;54.912;-8.392;2022-08-30T05:03:19;870.58;;;821.35;;
64403;SDS011;50726;54.912;-8.392;2022-08-30T05:10:57;893.55;;;842.47;;
64403;SDS011;50726;54.912;-8.392;2022-08-30T05:13:25;877.20;;;826.45;;
64403;SDS011;50726;54.912;-8.392;2022-08-30T05:18:20;905.92;;;852.53;;
64403;SDS011;50726;54.912;-8.392;2022-08-30T05:20:46;906.60;;;853.05;;
64403;SDS011;50726;54.912;-8.392;2022-08-30T05:23:13;915.40;;;861.85;;
64403;SDS011;50726;54.912;-8.392;2022-08-30T05:25:40;943.25;;;887.03;;
64403;SDS011;50726;54.912;-8.392;2022-08-30T05:28:06;916.20;;;862.13;;
64403;SDS011;50726;54.912;-8.392;2022-08-30T05:30:34;918.70;;;865.08;;
64403;SDS011;50726;54.912;-8.392;2022-08-30T05:33:09;898.88;;;847.65;;
64403;SDS011;50726;54.912;-8.392;2022-08-30T05:35:34;897.00;;;845.65;;
64403;SDS011;50726;54.912;-8.392;2022-08-30T05:38:03;845.15;;;797.03;;
64403;SDS011;50726;54.912;-8.392;2022-08-30T05:40:29;871.15;;;821.90;;
64403;SDS011;50726;54.912;-8.392;2022-08-30T05:42:56;836.92;;;789.85;;
64403;SDS011;50726;54.912;-8.392;2022-08-30T05:45:23;850.05;;;802.53;;
64403;SDS011;50726;54.912;-8.392;2022-08-30T05:47:48;817.55;;;772.33;;
64403;SDS011;50726;54.912;-8.392;2022-08-30T05:50:17;878.67;;;829.70;;
64403;SDS011;50726;54.912;-8.392;2022-08-30T05:52:44;883.75;;;834.00;;
64403;SDS011;50726;54.912;-8.392;2022-08-30T05:55:12;819.53;;;774.10;;
64403;SDS011;50726;54.912;-8.392;2022-08-30T05:57:39;838.50;;;792.30;;
64403;SDS011;50726;54.912;-8.392;2022-08-30T06:00:10;802.88;;;758.83;;
64403;SDS011;50726;54.912;-8.392;2022-08-30T06:02:39;768.55;;;727.13;;
64403;SDS011;50726;54.912;-8.392;2022-08-30T06:05:08;734.75;;;694.58;;
64403;SDS011;50726;54.912;-8.392;2022-08-30T06:07:53;713.00;;;673.95;;
64403;SDS011;50726;54.912;-8.392;2022-08-30T06:10:18;789.65;;;747.17;;
64403;SDS011;50726;54.912;-8.392;2022-08-30T06:12:46;760.65;;;719.50;;
64403;SDS011;50726;54.912;-8.392;2022-08-30T06:15:20;723.42;;;684.22;;
64403;SDS011;50726;54.912;-8.392;2022-08-30T06:17:48;771.15;;;729.63;;
64403;SDS011;50726;54.912;-8.392;2022-08-30T06:25:20;673.05;;;636.13;;
64403;SDS011;50726;54.912;-8.392;2022-08-30T06:27:47;671.42;;;634.80;;
64403;SDS011;50726;54.912;-8.392;2022-08-30T06:30:13;694.05;;;656.35;;
64403;SDS011;50726;54.912;-8.392;2022-08-30T06:32:39;763.90;;;722.63;;
64403;SDS011;50726;54.912;-8.392;2022-08-30T06:35:05;758.10;;;717.30;;
64403;SDS011;50726;54.912;-8.392;2022-08-30T06:37:36;763.05;;;721.67;;
64403;SDS011;50726;54.912;-8.392;2022-08-30T06:42:40;799.03;;;754.92;;
64403;SDS011;50726;54.912;-8.392;2022-08-30T06:45:08;855.95;;;808.28;;
64403;SDS011;50726;54.912;-8.392;2022-08-30T06:47:35;907.10;;;855.55;;
64403;SDS011;50726;54.912;-8.392;2022-08-30T06:52:33;904.72;;;852.47;;
64403;SDS011;50726;54.912;-8.392;2022-08-30T06:54:58;936.20;;;881.95;;
64403;SDS011;50726;54.912;-8.392;2022-08-30T06:57:25;919.40;;;865.85;;
64403;SDS011;50726;54.912;-8.392;2022-08-30T06:59:56;993.53;;;933.08;;
64403;SDS011;50726;54.912;-8.392;2022-08-30T07:02:25;947.30;;;891.53;;
64403;SDS011;50726;54.912;-8.392;2022-08-30T07:04:56;899.20;;;845.88;;
64403;SDS011;50726;54.912;-8.392;2022-08-30T07:07:22;892.00;;;839.67;;
64403;SDS011;50726;54.912;-8.392;2022-08-30T07:10:00;939.28;;;880.92;;
64403;SDS011;50726;54.912;-8.392;2022-08-30T07:17:26;977.47;;;915.42;;
64403;SDS011;50726;54.912;-8.392;2022-08-30T07:20:11;918.30;;;861.80;;
64403;SDS011;50726;54.912;-8.392;2022-08-30T07:22:41;949.58;;;888.40;;
64403;SDS011;50726;54.912;-8.392;2022-08-30T07:27:37;972.78;;;907.83;;
64403;SDS011;50726;54.912;-8.392;2022-08-30T07:30:04;941.25;;;879.40;;
64403;SDS011;50726;54.912;-8.392;2022-08-30T07:32:30;950.35;;;886.13;;
64403;SDS011;50726;54.912;-8.392;2022-08-30T07:35:04;973.67;;;905.53;;
64403;SDS011;50726;54.912;-8.392;2022-08-30T07:37:32;940.65;;;877.78;;
64403;SDS011;50726;54.912;-8.392;2022-08-30T07:39:58;917.28;;;856.30;;
64403;SDS011;50726;54.912;-8.392;2022-08-30T07:42:24;904.63;;;847.08;;
64403;SDS011;50726;54.912;-8.392;2022-08-30T07:44:51;927.20;;;866.13;;
64403;SDS011;50726;54.912;-8.392;2022-08-30T07:47:19;937.90;;;875.67;;
64403;SDS011;50726;54.912;-8.392;2022-08-30T07:49:45;925.35;;;863.58;;
64403;SDS011;50726;54.912;-8.392;2022-08-30T07:54:39;919.17;;;860.00;;
64403;SDS011;50726;54.912;-8.392;2022-08-30T07:57:07;923.85;;;864.03;;
64403;SDS011;50726;54.912;-8.392;2022-08-30T07:59:34;926.75;;;868.10;;
64403;SDS011;50726;54.912;-8.392;2022-08-30T08:02:00;922.92;;;865.35;;
64403;SDS011;50726;54.912;-8.392;2022-08-30T08:04:33;899.65;;;843.15;;
64403;SDS011;50726;54.912;-8.392;2022-08-30T08:06:59;945.33;;;885.67;;
64403;SDS011;50726;54.912;-8.392;2022-08-30T08:09:26;922.08;;;865.92;;
64403;SDS011;50726;54.912;-8.392;2022-08-30T08:11:52;953.85;;;894.90;;
64403;SDS011;50726;54.912;-8.392;2022-08-30T08:16:48;951.15;;;892.60;;
64403;SDS011;50726;54.912;-8.392;2022-08-30T08:19:14;919.75;;;864.08;;
64403;SDS011;50726;54.912;-8.392;2022-08-30T08:21:46;937.70;;;882.08;;
64403;SDS011;50726;54.912;-8.392;2022-08-30T08:26:42;939.90;;;884.72;;
64403;SDS011;50726;54.912;-8.392;2022-08-30T08:31:38;852.35;;;804.38;;
64403;SDS011;50726;54.912;-8.392;2022-08-30T08:34:07;910.53;;;859.58;;
64403;SDS011;50726;54.912;-8.392;2022-08-30T08:36:35;837.03;;;790.20;;
64403;SDS011;50726;54.912;-8.392;2022-08-30T08:39:04;870.10;;;821.80;;
64403;SDS011;50726;54.912;-8.392;2022-08-30T08:47:12;670.38;;;635.38;;
64403;SDS011;50726;54.912;-8.392;2022-08-30T08:52:22;839.75;;;794.55;;
64403;SDS011;50726;54.912;-8.392;2022-08-30T08:55:15;806.22;;;763.13;;
64403;SDS011;50726;54.912;-8.392;2022-08-30T08:57:45;753.70;;;713.38;;
64403;SDS011;50726;54.912;-8.392;2022-08-30T09:00:11;730.08;;;690.63;;
64403;SDS011;50726;54.912;-8.392;2022-08-30T09:02:40;746.35;;;705.75;;
64403;SDS011;50726;54.912;-8.392;2022-08-30T09:05:12;698.53;;;661.38;;
64403;SDS011;50726;54.912;-8.392;2022-08-30T09:10:17;658.65;;;624.03;;
64403;SDS011;50726;54.912;-8.392;2022-08-30T09:12:47;685.40;;;649.57;;
64403;SDS011;50726;54.912;-8.392;2022-08-30T09:15:21;555.38;;;525.30;;
64403;SDS011;50726;54.912;-8.392;2022-08-30T09:18:00;524.88;;;495.73;;
64403;SDS011;50726;54.912;-8.392;2022-08-30T09:20:40;608.35;;;576.55;;
64403;SDS011;50726;54.912;-8.392;2022-08-30T09:23:21;626.58;;;591.63;;
64403;SDS011;50726;54.912;-8.392;2022-08-30T09:26:00;552.10;;;521.70;;
64403;SDS011;50726;54.912;-8.392;2022-08-30T09:28:34;518.53;;;489.52;;
64403;SDS011;50726;54.912;-8.392;2022-08-30T09:31:24;441.73;;;416.60;;
64403;SDS011;50726;54.912;-8.392;2022-08-30T09:34:14;354.17;;;333.88;;
64403;SDS011;50726;54.912;-8.392;2022-08-30T09:36:44;326.45;;;308.10;;
64403;SDS011;50726;54.912;-8.392;2022-08-30T09:42:19;305.80;;;288.45;;
64403;SDS011;50726;54.912;-8.392;2022-08-30T09:47:21;388.10;;;365.38;;
64403;SDS011;50726;54.912;-8.392;2022-08-30T09:50:05;311.15;;;293.08;;
64403;SDS011;50726;54.912;-8.392;2022-08-30T09:52:55;291.08;;;275.02;;
64403;SDS011;50726;54.912;-8.392;2022-08-30T09:58:07;234.77;;;222.15;;
64403;SDS011;50726;54.912;-8.392;2022-08-30T10:01:06;418.85;;;394.58;;
64403;SDS011;50726;54.912;-8.392;2022-08-30T10:03:42;370.95;;;349.83;;
64403;SDS011;50726;54.912;-8.392;2022-08-30T10:06:33;415.10;;;391.40;;
64403;SDS011;50726;54.912;-8.392;2022-08-30T10:17:08;284.35;;;268.70;;
64403;SDS011;50726;54.912;-8.392;2022-08-30T10:30:41;172.93;;;164.10;;
64403;SDS011;50726;54.912;-8.392;2022-08-30T10:33:18;111.35;;;105.88;;
64403;SDS011;50726;54.912;-8.392;2022-08-30T10:35:54;94.70;;;89.93;;
64403;SDS011;50726;54.912;-8.392;2022-08-30T10:38:33;91.57;;;86.93;;
64403;SDS011;50726;54.912;-8.392;2022-08-30T10:49:38;36.65;;;34.67;;
64403;SDS011;50726;54.912;-8.392;2022-08-30T10:52:25;17.52;;;16.27;;
64403;SDS011;50726;54.912;-8.392;2022-08-30T10:54:59;9.52;;;8.73;;
64403;SDS011;50726;54.912;-8.392;2022-08-30T10:57:33;3.60;;;1.63;;
64403;SDS011;50726;54.912;-8.392;2022-08-30T11:02:52;2.30;;;1.40;;
64403;SDS011;50726;54.912;-8.392;2022-08-30T11:19:22;1.63;;;1.52;;
64403;SDS011;50726;54.912;-8.392;2022-08-30T11:21:50;1.77;;;1.30;;
64403;SDS011;50726;54.912;-8.392;2022-08-30T11:24:21;2.92;;;1.70;;
64403;SDS011;50726;54.912;-8.392;2022-08-30T11:26:50;5.57;;;1.80;;
64403;SDS011;50726;54.912;-8.392;2022-08-30T11:32:21;1.67;;;1.33;;
64403;SDS011;50726;54.912;-8.392;2022-08-30T11:34:55;1.52;;;1.40;;
64403;SDS011;50726;54.912;-8.392;2022-08-30T11:40:04;6.07;;;1.92;;
64403;SDS011;50726;54.912;-8.392;2022-08-30T11:42:38;1.70;;;1.60;;
64403;SDS011;50726;54.912;-8.392;2022-08-30T11:48:05;3.53;;;1.45;;
64403;SDS011;50726;54.912;-8.392;2022-08-30T11:50:47;2.08;;;1.40;;
64403;SDS011;50726;54.912;-8.392;2022-08-30T11:56:22;1.48;;;1.38;;
64403;SDS011;50726;54.912;-8.392;2022-08-30T11:59:00;3.58;;;1.48;;
64403;SDS011;50726;54.912;-8.392;2022-08-30T12:01:43;2.37;;;1.40;;
64403;SDS011;50726;54.912;-8.392;2022-08-30T12:06:50;2.20;;;1.38;;
64403;SDS011;50726;54.912;-8.392;2022-08-30T12:13:01;2.78;;;1.30;;
64403;SDS011;50726;54.912;-8.392;2022-08-30T12:17:55;2.35;;;1.33;;
64403;SDS011;50726;54.912;-8.392;2022-08-30T12:20:45;1.25;;;1.17;;
64403;SDS011;50726;54.912;-8.392;2022-08-30T12:23:47;2.05;;;1.10;;
64403;SDS011;50726;54.912;-8.392;2022-08-30T12:28:51;2.45;;;1.50;;
64403;SDS011;50726;54.912;-8.392;2022-08-30T12:31:49;2.22;;;1.27;;
64403;SDS011;50726;54.912;-8.392;2022-08-30T12:34:31;1.75;;;1.00;;
64403;SDS011;50726;54.912;-8.392;2022-08-30T12:39:44;1.88;;;1.13;;
64403;SDS011;50726;54.912;-8.392;2022-08-30T12:42:26;3.35;;;1.50;;
64403;SDS011;50726;54.912;-8.392;2022-08-30T12:44:56;1.65;;;1.33;;
64403;SDS011;50726;54.912;-8.392;2022-08-30T12:47:39;4.80;;;1.58;;
64403;SDS011;50726;54.912;-8.392;2022-08-30T12:52:47;3.72;;;1.67;;
64403;SDS011;50726;54.912;-8.392;2022-08-30T12:55:30;1.50;;;1.40;;
64403;SDS011;50726;54.912;-8.392;2022-08-30T12:58:08;2.80;;;1.30;;
64403;SDS011;50726;54.912;-8.392;2022-08-30T13:00:36;3.45;;;1.60;;
64403;SDS011;50726;54.912;-8.392;2022-08-30T13:06:03;2.97;;;1.73;;
64403;SDS011;50726;54.912;-8.392;2022-08-30T13:08:36;2.00;;;1.38;;
64403;SDS011;50726;54.912;-8.392;2022-08-30T13:11:33;2.15;;;1.52;;
64403;SDS011;50726;54.912;-8.392;2022-08-30T13:17:09;2.33;;;1.48;;
64403;SDS011;50726;54.912;-8.392;2022-08-30T13:22:35;2.47;;;1.20;;
64403;SDS011;50726;54.912;-8.392;2022-08-30T13:25:04;1.35;;;1.25;;
64403;SDS011;50726;54.912;-8.392;2022-08-30T13:27:32;2.70;;;1.50;;
64403;SDS011;50726;54.912;-8.392;2022-08-30T13:30:09;2.47;;;1.35;;
64403;SDS011;50726;54.912;-8.392;2022-08-30T13:32:37;2.97;;;1.83;;
64403;SDS011;50726;54.912;-8.392;2022-08-30T13:35:05;4.15;;;1.70;;
64403;SDS011;50726;54.912;-8.392;2022-08-30T13:40:03;1.50;;;1.38;;
64403;SDS011;50726;54.912;-8.392;2022-08-30T13:44:58;3.90;;;1.40;;
64403;SDS011;50726;54.912;-8.392;2022-08-30T13:47:24;2.97;;;1.58;;
64403;SDS011;50726;54.912;-8.392;2022-08-30T13:49:51;1.58;;;1.48;;
64403;SDS011;50726;54.912;-8.392;2022-08-30T13:52:19;1.73;;;1.63;;
64403;SDS011;50726;54.912;-8.392;2022-08-30T13:54:51;2.58;;;1.20;;
64403;SDS011;50726;54.912;-8.392;2022-08-30T13:59:46;1.40;;;1.30;;
64403;SDS011;50726;54.912;-8.392;2022-08-30T14:02:12;3.65;;;1.88;;
64403;SDS011;50726;54.912;-8.392;2022-08-30T14:04:38;2.47;;;1.90;;
64403;SDS011;50726;54.912;-8.392;2022-08-30T14:07:04;1.70;;;1.60;;
64403;SDS011;50726;54.912;-8.392;2022-08-30T14:09:31;2.40;;;1.70;;
64403;SDS011;50726;54.912;-8.392;2022-08-30T14:11:56;3.47;;;1.67;;
64403;SDS011;50726;54.912;-8.392;2022-08-30T14:14:22;2.72;;;1.90;;
64403;SDS011;50726;54.912;-8.392;2022-08-30T14:16:50;1.58;;;1.48;;
64403;SDS011;50726;54.912;-8.392;2022-08-30T14:19:16;2.15;;;1.65;;
64403;SDS011;50726;54.912;-8.392;2022-08-30T14:21:43;3.75;;;1.40;;
64403;SDS011;50726;54.912;-8.392;2022-08-30T14:24:10;2.20;;;1.88;;
64403;SDS011;50726;54.912;-8.392;2022-08-30T14:29:13;1.67;;;1.58;;
64403;SDS011;50726;54.912;-8.392;2022-08-30T14:31:42;4.00;;;1.70;;
64403;SDS011;50726;54.912;-8.392;2022-08-30T14:34:09;6.22;;;2.00;;
64403;SDS011;50726;54.912;-8.392;2022-08-30T14:36:36;2.80;;;1.60;;
64403;SDS011;50726;54.912;-8.392;2022-08-30T14:39:05;1.75;;;1.60;;
64403;SDS011;50726;54.912;-8.392;2022-08-30T14:44:00;2.75;;;1.52;;
64403;SDS011;50726;54.912;-8.392;2022-08-30T14:46:26;3.13;;;1.55;;
64403;SDS011;50726;54.912;-8.392;2022-08-30T14:48:52;2.67;;;1.48;;
64403;SDS011;50726;54.912;-8.392;2022-08-30T14:51:19;5.68;;;1.67;;
64403;SDS011;50726;54.912;-8.392;2022-08-30T14:53:46;3.42;;;1.90;;
64403;SDS011;50726;54.912;-8.392;2022-08-30T14:56:16;3.03;;;2.08;;
64403;SDS011;50726;54.912;-8.392;2022-08-30T14:58:43;2.00;;;1.80;;
64403;SDS011;50726;54.912;-8.392;2022-08-30T15:01:08;2.85;;;1.52;;
64403;SDS011;50726;54.912;-8.392;2022-08-30T15:03:37;3.05;;;1.75;;
64403;SDS011;50726;54.912;-8.392;2022-08-30T15:06:06;2.22;;;1.88;;
64403;SDS011;50726;54.912;-8.392;2022-08-30T15:08:33;3.97;;;1.73;;
64403;SDS011;50726;54.912;-8.392;2022-08-30T15:10:59;7.03;;;2.10;;
64403;SDS011;50726;54.912;-8.392;2022-08-30T15:13:26;3.67;;;1.70;;
64403;SDS011;50726;54.912;-8.392;2022-08-30T15:15:52;3.70;;;2.00;;
64403;SDS011;50726;54.912;-8.392;2022-08-30T15:18:18;2.10;;;1.63;;
64403;SDS011;50726;54.912;-8.392;2022-08-30T15:20:45;2.72;;;1.83;;
64403;SDS011;50726;54.912;-8.392;2022-08-30T15:23:12;1.58;;;1.48;;
64403;SDS011;50726;54.912;-8.392;2022-08-30T15:25:39;1.73;;;1.50;;
64403;SDS011;50726;54.912;-8.392;2022-08-30T15:28:04;2.00;;;1.60;;
64403;SDS011;50726;54.912;-8.392;2022-08-30T15:30:30;2.08;;;1.63;;
64403;SDS011;50726;54.912;-8.392;2022-08-30T15:32:56;2.78;;;1.77;;
64403;SDS011;50726;54.912;-8.392;2022-08-30T15:35:22;2.80;;;1.73;;
64403;SDS011;50726;54.912;-8.392;2022-08-30T15:37:48;3.65;;;2.30;;
64403;SDS011;50726;54.912;-8.392;2022-08-30T15:40:13;3.70;;;2.70;;
64403;SDS011;50726;54.912;-8.392;2022-08-30T15:42:39;3.90;;;2.40;;
64403;SDS011;50726;54.912;-8.392;2022-08-30T15:45:05;3.40;;;2.63;;
64403;SDS011;50726;54.912;-8.392;2022-08-30T15:47:31;3.72;;;2.72;;
64403;SDS011;50726;54.912;-8.392;2022-08-30T15:49:58;4.05;;;2.80;;
64403;SDS011;50726;54.912;-8.392;2022-08-30T15:52:27;3.08;;;2.42;;
64403;SDS011;50726;54.912;-8.392;2022-08-30T15:54:54;2.20;;;2.10;;
64403;SDS011;50726;54.912;-8.392;2022-08-30T15:57:21;3.50;;;2.53;;
64403;SDS011;50726;54.912;-8.392;2022-08-30T15:59:46;7.03;;;3.10;;
64403;SDS011;50726;54.912;-8.392;2022-08-30T16:02:12;12.75;;;4.55;;
64403;SDS011;50726;54.912;-8.392;2022-08-30T16:04:38;20.40;;;5.93;;
64403;SDS011;50726;54.912;-8.392;2022-08-30T16:07:04;11.60;;;5.45;;
64403;SDS011;50726;54.912;-8.392;2022-08-30T16:09:32;6.38;;;2.60;;
64403;SDS011;50726;54.912;-8.392;2022-08-30T16:12:00;7.33;;;3.30;;
64403;SDS011;50726;54.912;-8.392;2022-08-30T16:14:27;7.47;;;3.00;;
64403;SDS011;50726;54.912;-8.392;2022-08-30T16:16:52;8.70;;;2.58;;
64403;SDS011;50726;54.912;-8.392;2022-08-30T16:19:18;4.50;;;2.50;;
64403;SDS011;50726;54.912;-8.392;2022-08-30T16:21:44;5.00;;;2.30;;
64403;SDS011;50726;54.912;-8.392;2022-08-30T16:24:12;3.33;;;2.58;;
64403;SDS011;50726;54.912;-8.392;2022-08-30T16:26:38;4.95;;;2.55;;
64403;SDS011;50726;54.912;-8.392;2022-08-30T16:29:06;10.52;;;2.60;;
64403;SDS011;50726;54.912;-8.392;2022-08-30T16:31:33;6.30;;;2.77;;
64403;SDS011;50726;54.912;-8.392;2022-08-30T16:34:01;5.00;;;3.05;;
64403;SDS011;50726;54.912;-8.392;2022-08-30T16:36:28;4.00;;;2.60;;
64403;SDS011;50726;54.912;-8.392;2022-08-30T16:38:54;5.00;;;2.67;;
64403;SDS011;50726;54.912;-8.392;2022-08-30T16:41:20;5.13;;;2.45;;
64403;SDS011;50726;54.912;-8.392;2022-08-30T16:43:52;2.40;;;2.20;;
64403;SDS011;50726;54.912;-8.392;2022-08-30T16:46:18;5.93;;;2.30;;
64403;SDS011;50726;54.912;-8.392;2022-08-30T16:48:45;7.68;;;2.78;;
64403;SDS011;50726;54.912;-8.392;2022-08-30T16:51:14;3.60;;;2.40;;
64403;SDS011;50726;54.912;-8.392;2022-08-30T16:53:41;4.45;;;2.38;;
64403;SDS011;50726;54.912;-8.392;2022-08-30T16:56:11;2.55;;;2.15;;
64403;SDS011;50726;54.912;-8.392;2022-08-30T16:58:40;4.45;;;2.25;;
64403;SDS011;50726;54.912;-8.392;2022-08-30T17:01:07;5.97;;;2.10;;
64403;SDS011;50726;54.912;-8.392;2022-08-30T17:03:38;8.77;;;4.70;;
64403;SDS011;50726;54.912;-8.392;2022-08-30T17:06:05;6.82;;;2.30;;
64403;SDS011;50726;54.912;-8.392;2022-08-30T17:08:36;3.28;;;2.42;;
64403;SDS011;50726;54.912;-8.392;2022-08-30T17:11:02;2.38;;;2.03;;
64403;SDS011;50726;54.912;-8.392;2022-08-30T17:13:28;2.67;;;2.35;;
64403;SDS011;50726;54.912;-8.392;2022-08-30T17:15:55;4.28;;;2.80;;
64403;SDS011;50726;54.912;-8.392;2022-08-30T17:18:24;5.93;;;2.75;;
64403;SDS011;50726;54.912;-8.392;2022-08-30T17:20:50;4.82;;;2.42;;
64403;SDS011;50726;54.912;-8.392;2022-08-30T17:25:46;4.05;;;2.40;;
64403;SDS011;50726;54.912;-8.392;2022-08-30T17:28:12;5.70;;;2.35;;
64403;SDS011;50726;54.912;-8.392;2022-08-30T17:30:39;6.50;;;2.38;;
64403;SDS011;50726;54.912;-8.392;2022-08-30T17:33:05;7.65;;;2.47;;
64403;SDS011;50726;54.912;-8.392;2022-08-30T17:35:34;5.00;;;2.17;;
64403;SDS011;50726;54.912;-8.392;2022-08-30T17:40:34;3.45;;;2.72;;
64403;SDS011;50726;54.912;-8.392;2022-08-30T17:43:08;4.00;;;2.80;;
64403;SDS011;50726;54.912;-8.392;2022-08-30T17:45:34;5.63;;;2.30;;
64403;SDS011;50726;54.912;-8.392;2022-08-30T17:48:06;5.20;;;2.30;;
64403;SDS011;50726;54.912;-8.392;2022-08-30T17:50:35;2.95;;;2.38;;
64403;SDS011;50726;54.912;-8.392;2022-08-30T17:53:02;3.92;;;2.35;;
64403;SDS011;50726;54.912;-8.392;2022-08-30T17:55:30;3.55;;;2.17;;
64403;SDS011;50726;54.912;-8.392;2022-08-30T17:57:59;4.18;;;2.20;;
64403;SDS011;50726;54.912;-8.392;2022-08-30T18:00:24;5.07;;;2.60;;
64403;SDS011;50726;54.912;-8.392;2022-08-30T18:02:52;5.03;;;2.42;;
64403;SDS011;50726;54.912;-8.392;2022-08-30T18:05:34;3.00;;;1.95;;
64403;SDS011;50726;54.912;-8.392;2022-08-30T18:08:05;3.95;;;2.20;;
64403;SDS011;50726;54.912;-8.392;2022-08-30T18:10:32;4.70;;;2.25;;
64403;SDS011;50726;54.912;-8.392;2022-08-30T18:12:58;3.35;;;1.98;;